sensor_id;sensor_type;location;lat;lon;timestamp;temperature;humidity
77592;DHT22;66891;46.884;17.436;2023-02-01T00:01:36;2.99;73.70
77592;DHT22;66891;46.884;17.436;2023-02-01T00:04:04;3.13;72.56
77592;DHT22;66891;46.884;17.436;2023-02-01T00:06:31;2.62;74.54
77592;DHT22;66891;46.884;17.436;2023-02-01T00:08:59;2.41;74.65
77592;DHT22;66891;46.884;17.436;2023-02-01T00:11:27;2.40;74.75
77592;DHT22;66891;46.884;17.436;2023-02-01T00:13:56;2.52;75.19
77592;DHT22;66891;46.884;17.436;2023-02-01T00:16:25;3.00;72.25
77592;DHT22;66891;46.884;17.436;2023-02-01T00:18:57;2.62;74.24
77592;DHT22;66891;46.884;17.436;2023-02-01T00:21:25;2.29;75.67
77592;DHT22;66891;46.884;17.436;2023-02-01T00:23:53;2.30;76.56
77592;DHT22;66891;46.884;17.436;2023-02-01T00:26:25;2.64;74.65
77592;DHT22;66891;46.884;17.436;2023-02-01T00:28:54;2.17;76.49
77592;DHT22;66891;46.884;17.436;2023-02-01T00:31:22;2.05;77.05
77592;DHT22;66891;46.884;17.436;2023-02-01T00:33:50;2.30;76.22
77592;DHT22;66891;46.884;17.436;2023-02-01T00:36:17;1.95;77.26
77592;DHT22;66891;46.884;17.436;2023-02-01T00:38:45;2.44;75.43
77592;DHT22;66891;46.884;17.436;2023-02-01T00:41:14;1.96;76.79
77592;DHT22;66891;46.884;17.436;2023-02-01T00:43:42;1.96;77.66
77592;DHT22;66891;46.884;17.436;2023-02-01T00:46:12;2.20;76.45
77592;DHT22;66891;46.884;17.436;2023-02-01T00:48:39;1.79;78.04
77592;DHT22;66891;46.884;17.436;2023-02-01T00:51:08;1.81;77.31
77592;DHT22;66891;46.884;17.436;2023-02-01T00:53:36;1.58;78.49
77592;DHT22;66891;46.884;17.436;2023-02-01T00:56:04;1.91;77.25
77592;DHT22;66891;46.884;17.436;2023-02-01T00:58:33;1.81;77.39
77592;DHT22;66891;46.884;17.436;2023-02-01T01:01:02;1.72;78.24
77592;DHT22;66891;46.884;17.436;2023-02-01T01:03:33;1.96;77.61
77592;DHT22;66891;46.884;17.436;2023-02-01T01:06:03;1.85;78.22
77592;DHT22;66891;46.884;17.436;2023-02-01T01:08:32;2.13;76.78
77592;DHT22;66891;46.884;17.436;2023-02-01T01:11:04;2.05;77.60
77592;DHT22;66891;46.884;17.436;2023-02-01T01:13:32;2.02;77.78
77592;DHT22;66891;46.884;17.436;2023-02-01T01:16:01;2.40;76.42
77592;DHT22;66891;46.884;17.436;2023-02-01T01:18:32;1.96;77.27
77592;DHT22;66891;46.884;17.436;2023-02-01T01:21:01;1.96;78.38
77592;DHT22;66891;46.884;17.436;2023-02-01T01:23:28;2.03;77.34
77592;DHT22;66891;46.884;17.436;2023-02-01T01:25:55;1.87;78.14
77592;DHT22;66891;46.884;17.436;2023-02-01T01:28:23;1.81;78.03
77592;DHT22;66891;46.884;17.436;2023-02-01T01:30:50;2.30;76.19
77592;DHT22;66891;46.884;17.436;2023-02-01T01:33:17;1.72;77.46
77592;DHT22;66891;46.884;17.436;2023-02-01T01:35:46;1.98;76.58
77592;DHT22;66891;46.884;17.436;2023-02-01T01:38:14;1.43;78.22
77592;DHT22;66891;46.884;17.436;2023-02-01T01:40:44;1.36;79.22
77592;DHT22;66891;46.884;17.436;2023-02-01T01:43:14;1.54;77.77
77592;DHT22;66891;46.884;17.436;2023-02-01T01:45:41;1.81;76.92
77592;DHT22;66891;46.884;17.436;2023-02-01T01:48:13;1.45;78.17
77592;DHT22;66891;46.884;17.436;2023-02-01T01:50:44;1.76;76.81
77592;DHT22;66891;46.884;17.436;2023-02-01T01:53:21;1.37;78.93
77592;DHT22;66891;46.884;17.436;2023-02-01T01:55:52;0.95;80.39
77592;DHT22;66891;46.884;17.436;2023-02-01T01:58:24;1.12;79.75
77592;DHT22;66891;46.884;17.436;2023-02-01T02:00:53;1.48;77.96
77592;DHT22;66891;46.884;17.436;2023-02-01T02:03:23;1.51;77.68
77592;DHT22;66891;46.884;17.436;2023-02-01T02:05:54;1.24;77.91
77592;DHT22;66891;46.884;17.436;2023-02-01T02:08:25;0.92;79.80
77592;DHT22;66891;46.884;17.436;2023-02-01T02:10:52;0.59;81.27
77592;DHT22;66891;46.884;17.436;2023-02-01T02:13:31;0.72;80.16
77592;DHT22;66891;46.884;17.436;2023-02-01T02:16:17;0.92;78.63
77592;DHT22;66891;46.884;17.436;2023-02-01T02:18:57;0.59;80.47
77592;DHT22;66891;46.884;17.436;2023-02-01T02:21:42;0.62;80.67
77592;DHT22;66891;46.884;17.436;2023-02-01T02:24:43;0.58;80.95
77592;DHT22;66891;46.884;17.436;2023-02-01T02:27:30;0.69;80.35
77592;DHT22;66891;46.884;17.436;2023-02-01T02:33:40;0.85;79.79
77592;DHT22;66891;46.884;17.436;2023-02-01T02:36:12;0.57;80.24
77592;DHT22;66891;46.884;17.436;2023-02-01T02:38:47;0.52;80.51
77592;DHT22;66891;46.884;17.436;2023-02-01T02:41:20;0.58;80.39
77592;DHT22;66891;46.884;17.436;2023-02-01T02:44:34;0.62;80.32
77592;DHT22;66891;46.884;17.436;2023-02-01T02:47:31;0.96;78.58
77592;DHT22;66891;46.884;17.436;2023-02-01T02:50:08;0.54;80.14
77592;DHT22;66891;46.884;17.436;2023-02-01T02:53:00;0.65;79.98
77592;DHT22;66891;46.884;17.436;2023-02-01T02:55:48;0.75;79.99
77592;DHT22;66891;46.884;17.436;2023-02-01T02:58:17;0.78;79.11
77592;DHT22;66891;46.884;17.436;2023-02-01T03:01:06;0.90;79.44
77592;DHT22;66891;46.884;17.436;2023-02-01T03:03:52;0.90;78.94
77592;DHT22;66891;46.884;17.436;2023-02-01T03:06:38;1.01;79.07
77592;DHT22;66891;46.884;17.436;2023-02-01T03:09:10;1.09;78.92
77592;DHT22;66891;46.884;17.436;2023-02-01T03:11:40;1.12;79.04
77592;DHT22;66891;46.884;17.436;2023-02-01T03:14:32;1.10;78.63
77592;DHT22;66891;46.884;17.436;2023-02-01T03:17:04;0.80;79.91
77592;DHT22;66891;46.884;17.436;2023-02-01T03:19:37;0.92;80.23
77592;DHT22;66891;46.884;17.436;2023-02-01T03:22:14;0.97;79.05
77592;DHT22;66891;46.884;17.436;2023-02-01T03:24:45;1.17;78.91
77592;DHT22;66891;46.884;17.436;2023-02-01T03:27:18;1.78;75.99
77592;DHT22;66891;46.884;17.436;2023-02-01T03:29:51;1.65;76.64
77592;DHT22;66891;46.884;17.436;2023-02-01T03:32:22;2.07;75.76
77592;DHT22;66891;46.884;17.436;2023-02-01T03:34:50;1.86;76.44
77592;DHT22;66891;46.884;17.436;2023-02-01T03:37:22;1.48;77.83
77592;DHT22;66891;46.884;17.436;2023-02-01T03:39:55;1.31;78.29
77592;DHT22;66891;46.884;17.436;2023-02-01T03:42:28;1.27;78.21
77592;DHT22;66891;46.884;17.436;2023-02-01T03:45:01;2.01;75.11
77592;DHT22;66891;46.884;17.436;2023-02-01T03:47:34;1.74;75.28
77592;DHT22;66891;46.884;17.436;2023-02-01T03:50:05;1.52;77.10
77592;DHT22;66891;46.884;17.436;2023-02-01T03:52:39;1.69;76.51
77592;DHT22;66891;46.884;17.436;2023-02-01T03:55:08;1.87;76.03
77592;DHT22;66891;46.884;17.436;2023-02-01T03:57:40;2.17;73.92
77592;DHT22;66891;46.884;17.436;2023-02-01T04:00:14;1.59;77.08
77592;DHT22;66891;46.884;17.436;2023-02-01T04:02:43;1.50;78.08
77592;DHT22;66891;46.884;17.436;2023-02-01T04:05:10;1.55;77.88
77592;DHT22;66891;46.884;17.436;2023-02-01T04:07:40;1.82;77.14
77592;DHT22;66891;46.884;17.436;2023-02-01T04:10:08;1.65;77.03
77592;DHT22;66891;46.884;17.436;2023-02-01T04:12:36;1.68;77.56
77592;DHT22;66891;46.884;17.436;2023-02-01T04:15:04;1.81;77.74
77592;DHT22;66891;46.884;17.436;2023-02-01T04:17:32;1.89;77.30
77592;DHT22;66891;46.884;17.436;2023-02-01T04:19:59;1.69;77.71
77592;DHT22;66891;46.884;17.436;2023-02-01T04:22:27;2.24;75.13
77592;DHT22;66891;46.884;17.436;2023-02-01T04:24:57;2.58;73.95
77592;DHT22;66891;46.884;17.436;2023-02-01T04:27:24;2.55;73.41
77592;DHT22;66891;46.884;17.436;2023-02-01T04:29:50;2.51;73.66
77592;DHT22;66891;46.884;17.436;2023-02-01T04:32:19;1.86;76.99
77592;DHT22;66891;46.884;17.436;2023-02-01T04:34:49;1.55;77.25
77592;DHT22;66891;46.884;17.436;2023-02-01T04:37:16;2.22;74.56
77592;DHT22;66891;46.884;17.436;2023-02-01T04:39:43;2.23;73.66
77592;DHT22;66891;46.884;17.436;2023-02-01T04:42:12;1.87;76.49
77592;DHT22;66891;46.884;17.436;2023-02-01T04:44:40;1.76;76.55
77592;DHT22;66891;46.884;17.436;2023-02-01T04:47:08;1.75;76.24
77592;DHT22;66891;46.884;17.436;2023-02-01T04:49:36;1.76;75.94
77592;DHT22;66891;46.884;17.436;2023-02-01T04:52:04;1.76;75.77
77592;DHT22;66891;46.884;17.436;2023-02-01T04:54:31;1.69;76.88
77592;DHT22;66891;46.884;17.436;2023-02-01T04:56:59;2.19;73.77
77592;DHT22;66891;46.884;17.436;2023-02-01T04:59:28;1.81;75.66
77592;DHT22;66891;46.884;17.436;2023-02-01T05:01:56;1.55;77.02
77592;DHT22;66891;46.884;17.436;2023-02-01T05:04:23;1.75;76.21
77592;DHT22;66891;46.884;17.436;2023-02-01T05:06:51;1.76;76.25
77592;DHT22;66891;46.884;17.436;2023-02-01T05:09:18;2.19;74.33
77592;DHT22;66891;46.884;17.436;2023-02-01T05:11:45;2.10;75.43
77592;DHT22;66891;46.884;17.436;2023-02-01T05:14:33;1.65;76.64
77592;DHT22;66891;46.884;17.436;2023-02-01T05:17:00;1.81;76.62
77592;DHT22;66891;46.884;17.436;2023-02-01T05:19:28;1.76;76.50
77592;DHT22;66891;46.884;17.436;2023-02-01T05:21:55;2.07;75.50
77592;DHT22;66891;46.884;17.436;2023-02-01T05:24:24;1.82;75.94
77592;DHT22;66891;46.884;17.436;2023-02-01T05:26:51;1.78;77.24
77592;DHT22;66891;46.884;17.436;2023-02-01T05:29:18;1.79;76.99
77592;DHT22;66891;46.884;17.436;2023-02-01T05:31:47;2.05;76.23
77592;DHT22;66891;46.884;17.436;2023-02-01T05:34:15;1.86;76.42
77592;DHT22;66891;46.884;17.436;2023-02-01T05:36:43;1.65;78.07
77592;DHT22;66891;46.884;17.436;2023-02-01T05:39:10;1.75;77.88
77592;DHT22;66891;46.884;17.436;2023-02-01T05:41:38;1.81;78.31
77592;DHT22;66891;46.884;17.436;2023-02-01T05:44:05;1.93;77.13
77592;DHT22;66891;46.884;17.436;2023-02-01T05:46:34;1.99;76.67
77592;DHT22;66891;46.884;17.436;2023-02-01T05:49:03;2.05;76.91
77592;DHT22;66891;46.884;17.436;2023-02-01T05:51:31;2.44;74.81
77592;DHT22;66891;46.884;17.436;2023-02-01T05:53:58;1.98;76.97
77592;DHT22;66891;46.884;17.436;2023-02-01T05:56:25;1.87;78.06
77592;DHT22;66891;46.884;17.436;2023-02-01T05:58:53;1.65;78.56
77592;DHT22;66891;46.884;17.436;2023-02-01T06:01:20;1.83;78.05
77592;DHT22;66891;46.884;17.436;2023-02-01T06:03:48;1.86;78.07
77592;DHT22;66891;46.884;17.436;2023-02-01T06:06:17;1.76;78.50
77592;DHT22;66891;46.884;17.436;2023-02-01T06:08:46;1.68;78.23
77592;DHT22;66891;46.884;17.436;2023-02-01T06:11:14;1.58;79.52
77592;DHT22;66891;46.884;17.436;2023-02-01T06:13:57;1.48;78.94
77592;DHT22;66891;46.884;17.436;2023-02-01T06:16:25;1.54;79.14
77592;DHT22;66891;46.884;17.436;2023-02-01T06:18:53;1.47;79.29
77592;DHT22;66891;46.884;17.436;2023-02-01T06:21:22;1.82;79.38
77592;DHT22;66891;46.884;17.436;2023-02-01T06:23:53;2.26;76.50
77592;DHT22;66891;46.884;17.436;2023-02-01T06:26:21;1.78;78.41
77592;DHT22;66891;46.884;17.436;2023-02-01T06:28:50;1.85;78.89
77592;DHT22;66891;46.884;17.436;2023-02-01T06:31:18;1.87;78.66
77592;DHT22;66891;46.884;17.436;2023-02-01T06:33:45;2.27;78.26
77592;DHT22;66891;46.884;17.436;2023-02-01T06:36:14;1.99;78.21
77592;DHT22;66891;46.884;17.436;2023-02-01T06:38:47;2.22;77.99
77592;DHT22;66891;46.884;17.436;2023-02-01T06:41:15;2.02;77.37
77592;DHT22;66891;46.884;17.436;2023-02-01T06:43:42;1.93;78.59
77592;DHT22;66891;46.884;17.436;2023-02-01T06:46:15;1.66;79.22
77592;DHT22;66891;46.884;17.436;2023-02-01T06:48:43;1.93;79.10
77592;DHT22;66891;46.884;17.436;2023-02-01T06:51:21;1.96;77.79
77592;DHT22;66891;46.884;17.436;2023-02-01T06:53:53;2.26;77.17
77592;DHT22;66891;46.884;17.436;2023-02-01T06:56:25;2.55;75.39
77592;DHT22;66891;46.884;17.436;2023-02-01T06:58:55;2.61;75.10
77592;DHT22;66891;46.884;17.436;2023-02-01T07:01:23;2.33;76.15
77592;DHT22;66891;46.884;17.436;2023-02-01T07:03:51;2.14;77.91
77592;DHT22;66891;46.884;17.436;2023-02-01T07:06:18;2.07;78.16
77592;DHT22;66891;46.884;17.436;2023-02-01T07:08:45;2.58;75.42
77592;DHT22;66891;46.884;17.436;2023-02-01T07:11:15;2.61;75.16
77592;DHT22;66891;46.884;17.436;2023-02-01T07:13:44;2.64;74.90
77592;DHT22;66891;46.884;17.436;2023-02-01T07:16:14;2.38;75.36
77592;DHT22;66891;46.884;17.436;2023-02-01T07:18:42;2.37;77.10
77592;DHT22;66891;46.884;17.436;2023-02-01T07:21:13;2.31;77.53
77592;DHT22;66891;46.884;17.436;2023-02-01T07:23:40;2.77;75.04
77592;DHT22;66891;46.884;17.436;2023-02-01T07:26:12;2.91;73.83
77592;DHT22;66891;46.884;17.436;2023-02-01T07:28:42;2.96;73.83
77592;DHT22;66891;46.884;17.436;2023-02-01T07:31:11;2.27;76.92
77592;DHT22;66891;46.884;17.436;2023-02-01T07:33:41;2.52;76.40
77592;DHT22;66891;46.884;17.436;2023-02-01T07:36:11;3.05;73.33
77592;DHT22;66891;46.884;17.436;2023-02-01T07:38:39;2.57;74.71
77592;DHT22;66891;46.884;17.436;2023-02-01T07:41:07;2.92;73.53
77592;DHT22;66891;46.884;17.436;2023-02-01T07:43:35;3.15;72.96
77592;DHT22;66891;46.884;17.436;2023-02-01T07:46:04;2.61;75.49
77592;DHT22;66891;46.884;17.436;2023-02-01T07:48:33;3.03;73.43
77592;DHT22;66891;46.884;17.436;2023-02-01T07:51:05;3.19;72.79
77592;DHT22;66891;46.884;17.436;2023-02-01T07:53:33;2.74;74.86
77592;DHT22;66891;46.884;17.436;2023-02-01T07:56:01;2.77;75.33
77592;DHT22;66891;46.884;17.436;2023-02-01T07:58:33;2.96;74.09
77592;DHT22;66891;46.884;17.436;2023-02-01T08:01:22;2.52;75.86
77592;DHT22;66891;46.884;17.436;2023-02-01T08:03:53;2.31;76.47
77592;DHT22;66891;46.884;17.436;2023-02-01T08:06:22;3.22;73.05
77592;DHT22;66891;46.884;17.436;2023-02-01T08:08:50;3.10;73.03
77592;DHT22;66891;46.884;17.436;2023-02-01T08:11:19;3.03;75.12
77592;DHT22;66891;46.884;17.436;2023-02-01T08:13:49;3.10;74.18
77592;DHT22;66891;46.884;17.436;2023-02-01T08:16:19;3.08;74.24
77592;DHT22;66891;46.884;17.436;2023-02-01T08:18:48;3.19;73.43
77592;DHT22;66891;46.884;17.436;2023-02-01T08:21:20;3.37;72.64
77592;DHT22;66891;46.884;17.436;2023-02-01T08:23:51;3.36;73.02
77592;DHT22;66891;46.884;17.436;2023-02-01T08:26:20;3.81;72.23
77592;DHT22;66891;46.884;17.436;2023-02-01T08:28:53;3.99;72.31
77592;DHT22;66891;46.884;17.436;2023-02-01T08:31:26;3.85;72.27
77592;DHT22;66891;46.884;17.436;2023-02-01T08:33:57;4.13;73.28
77592;DHT22;66891;46.884;17.436;2023-02-01T08:36:26;4.16;71.04
77592;DHT22;66891;46.884;17.436;2023-02-01T08:39:01;4.39;70.54
77592;DHT22;66891;46.884;17.436;2023-02-01T08:41:34;4.77;70.45
77592;DHT22;66891;46.884;17.436;2023-02-01T08:44:03;3.94;71.87
77592;DHT22;66891;46.884;17.436;2023-02-01T08:46:31;3.63;72.86
77592;DHT22;66891;46.884;17.436;2023-02-01T08:48:59;4.16;71.16
77592;DHT22;66891;46.884;17.436;2023-02-01T08:51:26;3.91;71.39
77592;DHT22;66891;46.884;17.436;2023-02-01T08:53:54;3.31;74.10
77592;DHT22;66891;46.884;17.436;2023-02-01T08:56:23;3.89;73.08
77592;DHT22;66891;46.884;17.436;2023-02-01T08:58:51;4.14;71.27
77592;DHT22;66891;46.884;17.436;2023-02-01T09:01:25;4.28;72.48
77592;DHT22;66891;46.884;17.436;2023-02-01T09:03:54;4.13;70.29
77592;DHT22;66891;46.884;17.436;2023-02-01T09:06:22;3.82;72.14
77592;DHT22;66891;46.884;17.436;2023-02-01T09:08:49;3.78;72.09
77592;DHT22;66891;46.884;17.436;2023-02-01T09:11:17;3.73;72.76
77592;DHT22;66891;46.884;17.436;2023-02-01T09:13:46;3.95;71.75
77592;DHT22;66891;46.884;17.436;2023-02-01T09:16:14;4.61;69.65
77592;DHT22;66891;46.884;17.436;2023-02-01T09:18:41;4.92;67.23
77592;DHT22;66891;46.884;17.436;2023-02-01T09:21:29;4.82;67.54
77592;DHT22;66891;46.884;17.436;2023-02-01T09:23:57;4.82;68.59
77592;DHT22;66891;46.884;17.436;2023-02-01T09:26:25;4.70;68.35
77592;DHT22;66891;46.884;17.436;2023-02-01T09:28:58;4.74;69.58
77592;DHT22;66891;46.884;17.436;2023-02-01T09:31:26;4.81;68.26
77592;DHT22;66891;46.884;17.436;2023-02-01T09:33:54;5.02;66.71
77592;DHT22;66891;46.884;17.436;2023-02-01T09:36:22;5.30;65.22
77592;DHT22;66891;46.884;17.436;2023-02-01T09:38:52;5.20;64.88
77592;DHT22;66891;46.884;17.436;2023-02-01T09:41:26;5.11;66.29
77592;DHT22;66891;46.884;17.436;2023-02-01T09:44:22;5.27;64.27
77592;DHT22;66891;46.884;17.436;2023-02-01T09:47:01;5.40;62.27
77592;DHT22;66891;46.884;17.436;2023-02-01T09:49:30;5.27;63.54
77592;DHT22;66891;46.884;17.436;2023-02-01T09:52:02;5.46;62.27
77592;DHT22;66891;46.884;17.436;2023-02-01T09:54:41;5.43;64.05
77592;DHT22;66891;46.884;17.436;2023-02-01T09:57:14;5.40;64.00
77592;DHT22;66891;46.884;17.436;2023-02-01T09:59:46;5.44;62.98
77592;DHT22;66891;46.884;17.436;2023-02-01T10:02:20;5.35;64.50
77592;DHT22;66891;46.884;17.436;2023-02-01T10:04:52;5.44;63.62
77592;DHT22;66891;46.884;17.436;2023-02-01T10:07:27;5.56;63.27
77592;DHT22;66891;46.884;17.436;2023-02-01T10:10:02;5.88;62.60
77592;DHT22;66891;46.884;17.436;2023-02-01T10:12:57;6.28;60.03
77592;DHT22;66891;46.884;17.436;2023-02-01T10:15:35;6.58;59.65
77592;DHT22;66891;46.884;17.436;2023-02-01T10:18:42;6.90;58.42
77592;DHT22;66891;46.884;17.436;2023-02-01T10:21:18;7.18;58.32
77592;DHT22;66891;46.884;17.436;2023-02-01T10:24:06;7.39;55.43
77592;DHT22;66891;46.884;17.436;2023-02-01T10:26:51;7.94;51.77
77592;DHT22;66891;46.884;17.436;2023-02-01T10:29:25;8.24;49.53
77592;DHT22;66891;46.884;17.436;2023-02-01T10:31:56;8.74;51.82
77592;DHT22;66891;46.884;17.436;2023-02-01T10:34:26;8.83;46.85
77592;DHT22;66891;46.884;17.436;2023-02-01T10:37:00;8.67;47.94
77592;DHT22;66891;46.884;17.436;2023-02-01T10:39:31;9.12;51.37
77592;DHT22;66891;46.884;17.436;2023-02-01T10:42:00;9.48;51.57
77592;DHT22;66891;46.884;17.436;2023-02-01T10:44:29;9.39;48.91
77592;DHT22;66891;46.884;17.436;2023-02-01T10:46:57;9.43;47.73
77592;DHT22;66891;46.884;17.436;2023-02-01T10:49:29;9.03;47.01
77592;DHT22;66891;46.884;17.436;2023-02-01T10:52:04;8.85;50.63
77592;DHT22;66891;46.884;17.436;2023-02-01T10:54:38;8.54;48.52
77592;DHT22;66891;46.884;17.436;2023-02-01T10:57:09;8.64;48.63
77592;DHT22;66891;46.884;17.436;2023-02-01T10:59:38;8.21;50.53
77592;DHT22;66891;46.884;17.436;2023-02-01T11:02:19;8.31;50.24
77592;DHT22;66891;46.884;17.436;2023-02-01T11:04:47;7.88;48.83
77592;DHT22;66891;46.884;17.436;2023-02-01T11:07:19;7.53;50.20
77592;DHT22;66891;46.884;17.436;2023-02-01T11:09:50;7.69;50.79
77592;DHT22;66891;46.884;17.436;2023-02-01T11:12:28;7.65;51.71
77592;DHT22;66891;46.884;17.436;2023-02-01T11:15:12;7.55;53.12
77592;DHT22;66891;46.884;17.436;2023-02-01T11:17:42;7.80;53.10
77592;DHT22;66891;46.884;17.436;2023-02-01T11:20:15;7.56;53.80
77592;DHT22;66891;46.884;17.436;2023-02-01T11:22:47;7.30;55.02
77592;DHT22;66891;46.884;17.436;2023-02-01T11:25:16;7.47;55.25
77592;DHT22;66891;46.884;17.436;2023-02-01T11:27:47;7.71;53.26
77592;DHT22;66891;46.884;17.436;2023-02-01T11:30:27;7.55;54.44
77592;DHT22;66891;46.884;17.436;2023-02-01T11:33:00;6.90;58.01
77592;DHT22;66891;46.884;17.436;2023-02-01T11:35:30;7.23;56.01
77592;DHT22;66891;46.884;17.436;2023-02-01T11:37:59;7.22;56.02
77592;DHT22;66891;46.884;17.436;2023-02-01T11:40:28;7.36;55.45
77592;DHT22;66891;46.884;17.436;2023-02-01T11:42:59;7.43;56.05
77592;DHT22;66891;46.884;17.436;2023-02-01T11:45:30;7.55;56.13
77592;DHT22;66891;46.884;17.436;2023-02-01T11:47:58;7.57;56.63
77592;DHT22;66891;46.884;17.436;2023-02-01T11:50:33;7.42;56.06
77592;DHT22;66891;46.884;17.436;2023-02-01T11:53:24;7.74;55.12
77592;DHT22;66891;46.884;17.436;2023-02-01T11:56:19;7.25;56.99
77592;DHT22;66891;46.884;17.436;2023-02-01T11:59:04;7.67;57.21
77592;DHT22;66891;46.884;17.436;2023-02-01T12:01:46;7.80;55.69
77592;DHT22;66891;46.884;17.436;2023-02-01T12:04:41;7.63;57.48
77592;DHT22;66891;46.884;17.436;2023-02-01T12:07:20;7.87;55.54
77592;DHT22;66891;46.884;17.436;2023-02-01T12:10:04;7.43;57.46
77592;DHT22;66891;46.884;17.436;2023-02-01T12:12:41;7.46;56.75
77592;DHT22;66891;46.884;17.436;2023-02-01T12:15:26;7.76;56.89
77592;DHT22;66891;46.884;17.436;2023-02-01T12:21:24;7.71;56.56
77592;DHT22;66891;46.884;17.436;2023-02-01T12:24:16;8.02;54.26
77592;DHT22;66891;46.884;17.436;2023-02-01T12:26:50;7.76;56.48
77592;DHT22;66891;46.884;17.436;2023-02-01T12:29:53;7.85;55.41
77592;DHT22;66891;46.884;17.436;2023-02-01T12:32:46;7.71;56.75
77592;DHT22;66891;46.884;17.436;2023-02-01T12:35:41;7.71;57.06
77592;DHT22;66891;46.884;17.436;2023-02-01T12:38:33;7.73;57.19
77592;DHT22;66891;46.884;17.436;2023-02-01T12:41:35;7.81;56.44
77592;DHT22;66891;46.884;17.436;2023-02-01T12:44:12;8.21;57.12
77592;DHT22;66891;46.884;17.436;2023-02-01T12:46:47;7.81;56.51
77592;DHT22;66891;46.884;17.436;2023-02-01T12:49:20;7.66;58.22
77592;DHT22;66891;46.884;17.436;2023-02-01T12:52:00;7.71;57.34
77592;DHT22;66891;46.884;17.436;2023-02-01T12:54:37;7.74;57.13
77592;DHT22;66891;46.884;17.436;2023-02-01T12:57:21;7.55;57.87
77592;DHT22;66891;46.884;17.436;2023-02-01T12:59:55;7.83;56.69
77592;DHT22;66891;46.884;17.436;2023-02-01T13:02:28;7.88;56.34
77592;DHT22;66891;46.884;17.436;2023-02-01T13:05:07;7.36;57.46
77592;DHT22;66891;46.884;17.436;2023-02-01T13:07:43;7.32;59.05
77592;DHT22;66891;46.884;17.436;2023-02-01T13:10:15;7.42;57.66
77592;DHT22;66891;46.884;17.436;2023-02-01T13:12:50;7.39;59.65
77592;DHT22;66891;46.884;17.436;2023-02-01T13:15:23;7.14;58.88
77592;DHT22;66891;46.884;17.436;2023-02-01T13:17:52;7.53;57.12
77592;DHT22;66891;46.884;17.436;2023-02-01T13:20:26;7.55;56.76
77592;DHT22;66891;46.884;17.436;2023-02-01T13:23:00;7.43;55.82
77592;DHT22;66891;46.884;17.436;2023-02-01T13:25:35;7.19;57.51
77592;DHT22;66891;46.884;17.436;2023-02-01T13:28:09;7.16;57.55
77592;DHT22;66891;46.884;17.436;2023-02-01T13:31:00;6.90;58.68
77592;DHT22;66891;46.884;17.436;2023-02-01T13:33:47;6.95;57.53
77592;DHT22;66891;46.884;17.436;2023-02-01T13:36:41;6.87;62.43
77592;DHT22;66891;46.884;17.436;2023-02-01T13:39:46;6.64;64.10
77592;DHT22;66891;46.884;17.436;2023-02-01T13:42:18;6.33;65.94
77592;DHT22;66891;46.884;17.436;2023-02-01T13:44:49;6.57;67.45
77592;DHT22;66891;46.884;17.436;2023-02-01T13:47:24;6.97;68.07
77592;DHT22;66891;46.884;17.436;2023-02-01T13:49:53;6.80;67.77
77592;DHT22;66891;46.884;17.436;2023-02-01T13:52:26;7.18;65.70
77592;DHT22;66891;46.884;17.436;2023-02-01T13:55:03;7.28;66.78
77592;DHT22;66891;46.884;17.436;2023-02-01T13:57:42;7.14;66.07
77592;DHT22;66891;46.884;17.436;2023-02-01T14:00:31;6.97;70.09
77592;DHT22;66891;46.884;17.436;2023-02-01T14:03:16;7.01;68.15
77592;DHT22;66891;46.884;17.436;2023-02-01T14:09:14;7.23;66.58
77592;DHT22;66891;46.884;17.436;2023-02-01T14:11:48;7.35;68.86
77592;DHT22;66891;46.884;17.436;2023-02-01T14:14:44;7.56;69.08
77592;DHT22;66891;46.884;17.436;2023-02-01T14:17:38;7.22;69.88
77592;DHT22;66891;46.884;17.436;2023-02-01T14:20:40;7.49;69.67
77592;DHT22;66891;46.884;17.436;2023-02-01T14:23:29;7.38;70.84
77592;DHT22;66891;46.884;17.436;2023-02-01T14:26:13;7.45;67.49
77592;DHT22;66891;46.884;17.436;2023-02-01T14:31:41;7.40;68.51
77592;DHT22;66891;46.884;17.436;2023-02-01T14:34:15;7.36;68.73
77592;DHT22;66891;46.884;17.436;2023-02-01T14:36:48;7.11;70.30
77592;DHT22;66891;46.884;17.436;2023-02-01T14:39:31;6.98;70.02
77592;DHT22;66891;46.884;17.436;2023-02-01T14:42:04;7.25;67.84
77592;DHT22;66891;46.884;17.436;2023-02-01T14:44:35;7.29;68.05
77592;DHT22;66891;46.884;17.436;2023-02-01T14:47:33;7.39;68.10
77592;DHT22;66891;46.884;17.436;2023-02-01T14:50:17;7.49;65.42
77592;DHT22;66891;46.884;17.436;2023-02-01T14:52:49;7.56;64.58
77592;DHT22;66891;46.884;17.436;2023-02-01T14:55:27;7.74;64.16
77592;DHT22;66891;46.884;17.436;2023-02-01T14:57:58;7.73;66.30
77592;DHT22;66891;46.884;17.436;2023-02-01T15:00:29;7.83;61.47
77592;DHT22;66891;46.884;17.436;2023-02-01T15:03:16;7.78;61.14
77592;DHT22;66891;46.884;17.436;2023-02-01T15:05:55;7.81;60.92
77592;DHT22;66891;46.884;17.436;2023-02-01T15:08:25;7.57;63.49
77592;DHT22;66891;46.884;17.436;2023-02-01T15:10:54;7.57;61.75
77592;DHT22;66891;46.884;17.436;2023-02-01T15:13:26;7.59;61.12
77592;DHT22;66891;46.884;17.436;2023-02-01T15:16:05;7.49;62.44
77592;DHT22;66891;46.884;17.436;2023-02-01T15:18:33;7.52;61.82
77592;DHT22;66891;46.884;17.436;2023-02-01T15:21:01;7.46;63.38
77592;DHT22;66891;46.884;17.436;2023-02-01T15:23:49;7.49;62.51
77592;DHT22;66891;46.884;17.436;2023-02-01T15:26:28;7.38;62.93
77592;DHT22;66891;46.884;17.436;2023-02-01T15:28:58;7.40;63.08
77592;DHT22;66891;46.884;17.436;2023-02-01T15:31:34;7.45;60.94
77592;DHT22;66891;46.884;17.436;2023-02-01T15:34:02;7.49;60.60
77592;DHT22;66891;46.884;17.436;2023-02-01T15:36:30;7.47;60.41
77592;DHT22;66891;46.884;17.436;2023-02-01T15:39:13;7.47;60.04
77592;DHT22;66891;46.884;17.436;2023-02-01T15:41:52;7.42;60.77
77592;DHT22;66891;46.884;17.436;2023-02-01T15:44:29;7.33;62.08
77592;DHT22;66891;46.884;17.436;2023-02-01T15:46:58;7.23;61.89
77592;DHT22;66891;46.884;17.436;2023-02-01T15:49:29;7.20;61.67
77592;DHT22;66891;46.884;17.436;2023-02-01T15:51:59;7.15;61.93
77592;DHT22;66891;46.884;17.436;2023-02-01T15:54:28;7.08;63.05
77592;DHT22;66891;46.884;17.436;2023-02-01T15:57:01;6.99;63.15
77592;DHT22;66891;46.884;17.436;2023-02-01T15:59:35;6.91;64.00
77592;DHT22;66891;46.884;17.436;2023-02-01T16:02:04;6.84;63.60
77592;DHT22;66891;46.884;17.436;2023-02-01T16:04:32;6.84;63.45
77592;DHT22;66891;46.884;17.436;2023-02-01T16:07:02;6.74;63.95
77592;DHT22;66891;46.884;17.436;2023-02-01T16:09:37;6.73;64.72
77592;DHT22;66891;46.884;17.436;2023-02-01T16:12:26;6.67;64.97
77592;DHT22;66891;46.884;17.436;2023-02-01T16:14:56;6.70;64.96
77592;DHT22;66891;46.884;17.436;2023-02-01T16:17:24;6.67;64.77
77592;DHT22;66891;46.884;17.436;2023-02-01T16:19:51;6.69;65.56
77592;DHT22;66891;46.884;17.436;2023-02-01T16:22:19;6.66;65.27